Time,TemperatureF,DewpointF,PressureIn,WindDirection,WindDirectionDegrees,WindSpeedMPH,WindSpeedGustMPH,Humidity,HourlyPrecipIn,Conditions,Clouds,dailyrainin,SolarRadiationWatts/m^2,SoftwareType,DateUTC
2013-01-11 00:12:00,36.0,29.0,-100.00,WSW,237,4.0,10.0,77,-99.99,,,0.00,0.000000,,2013-01-11 08:12:00,
2013-01-11 01:12:00,35.0,30.0,-100.00,WNW,289,5.0,13.0,83,-99.99,,,0.00,0.000000,,2013-01-11 09:12:00,
2013-01-11 02:12:00,35.0,29.0,-100.00,WNW,289,3.0,7.0,80,-99.99,,,0.00,0.000000,,2013-01-11 10:12:00,
2013-01-11 03:12:00,31.0,27.0,-100.00,ESE,123,3.0,5.0,85,-99.99,,,0.00,0.000000,,2013-01-11 11:12:00,
2013-01-11 04:12:00,32.0,26.0,-100.00,SW,223,2.0,4.0,80,-99.99,,,0.00,0.000000,,2013-01-11 12:12:00,
2013-01-11 05:12:00,33.0,26.0,-100.00,ENE,73,2.0,5.0,75,-99.99,,,0.00,0.000000,,2013-01-11 13:12:00,
2013-01-11 06:12:00,33.0,28.0,-100.00,WSW,257,3.0,10.0,80,-99.99,,,0.00,0.000000,,2013-01-11 14:12:00,
2013-01-11 07:12:00,34.0,29.0,-100.00,NW,305,4.0,10.0,81,-99.99,,,0.00,0.000000,,2013-01-11 15:12:00,
2013-01-11 08:12:00,34.0,29.0,-100.00,NNW,333,2.0,6.0,82,-99.99,,,0.00,0.000000,,2013-01-11 16:12:00,
2013-01-11 09:12:00,32.0,29.0,-100.00,NW,316,1.0,7.0,85,-99.99,,,0.00,17.900000,,2013-01-11 17:12:00,
2013-01-11 10:12:00,32.0,26.0,-100.00,ENE,58,1.0,3.0,77,-99.99,,,0.00,74.379997,,2013-01-11 18:12:00,
2013-01-11 12:12:00,36.0,26.0,-100.00,South,175,2.0,4.0,66,-99.99,,,0.00,354.350006,,2013-01-11 20:12:00,
2013-01-11 13:12:00,37.0,26.0,-100.00,SSE,156,2.0,4.0,62,-99.99,,,0.00,388.519989,,2013-01-11 21:12:00,
2013-01-11 14:12:00,39.0,24.0,-100.00,NNW,334,1.0,5.0,53,-99.99,,,0.00,367.260010,,2013-01-11 22:12:00,
2013-01-11 15:12:00,42.0,22.0,-100.00,South,181,1.0,4.0,44,-99.99,,,0.00,298.920013,,2013-01-11 23:12:00,
2013-01-11 16:12:00,40.0,20.0,-100.00,NW,304,2.0,6.0,42,-99.99,,,0.00,188.970001,,2013-01-12 00:12:00,
2013-01-11 17:12:00,39.0,23.0,-100.00,WNW,299,2.0,4.0,52,-99.99,,,0.00,52.180000,,2013-01-12 01:12:00,
2013-01-11 18:12:00,35.0,23.0,-100.00,SSE,164,2.0,3.0,62,-99.99,,,0.00,0.230000,,2013-01-12 02:12:00,
2013-01-11 19:12:00,31.0,22.0,-100.00,SE,131,1.0,2.0,69,-99.99,,,0.00,0.000000,,2013-01-12 03:12:00,
2013-01-11 20:12:00,30.0,23.0,-100.00,SSE,151,2.0,3.0,75,-99.99,,,0.00,0.000000,,2013-01-12 04:12:00,
2013-01-11 21:12:00,29.0,23.0,-100.00,SSE,156,2.0,3.0,76,-99.99,,,0.00,0.000000,,2013-01-12 05:12:00,
2013-01-11 22:12:00,27.0,23.0,-100.00,South,182,1.0,3.0,83,-99.99,,,0.00,0.000000,,2013-01-12 06:12:00,
2013-01-11 23:12:00,27.0,23.0,-100.00,SW,230,0.0,1.0,83,-99.99,,,0.00,0.000000,,2013-01-12 07:12:00,